sensor_id;sensor_type;location;lat;lon;timestamp;pressure;altitude;pressure_sealevel;temperature;humidity
75247;BME280;63844;50.042;19.224;2024-01-27T00:00:08;99324.39;;;4.68;90.72
75247;BME280;63844;50.042;19.224;2024-01-27T00:01:45;99323.59;;;4.66;90.47
75247;BME280;63844;50.042;19.224;2024-01-27T00:03:21;99331.81;;;4.62;91.08
75247;BME280;63844;50.042;19.224;2024-01-27T00:04:58;99340.91;;;4.57;91.10
75247;BME280;63844;50.042;19.224;2024-01-27T00:06:34;99344.57;;;4.58;91.39
75247;BME280;63844;50.042;19.224;2024-01-27T00:08:11;99357.63;;;4.55;91.63
75247;BME280;63844;50.042;19.224;2024-01-27T00:09:47;99365.82;;;4.52;90.93
75247;BME280;63844;50.042;19.224;2024-01-27T00:11:24;99357.27;;;4.50;91.19
75247;BME280;63844;50.042;19.224;2024-01-27T00:13:00;99375.53;;;4.45;91.47
75247;BME280;63844;50.042;19.224;2024-01-27T00:14:40;99365.14;;;4.36;91.67
75247;BME280;63844;50.042;19.224;2024-01-27T00:16:16;99374.42;;;4.37;91.23
75247;BME280;63844;50.042;19.224;2024-01-27T00:17:53;99395.31;;;4.35;90.39
75247;BME280;63844;50.042;19.224;2024-01-27T00:19:29;99408.06;;;4.31;90.46
75247;BME280;63844;50.042;19.224;2024-01-27T00:21:06;99414.60;;;4.24;91.22
75247;BME280;63844;50.042;19.224;2024-01-27T00:22:42;99420.23;;;4.23;91.38
75247;BME280;63844;50.042;19.224;2024-01-27T00:24:19;99425.55;;;4.16;92.25
75247;BME280;63844;50.042;19.224;2024-01-27T00:25:55;99438.48;;;4.12;90.82
75247;BME280;63844;50.042;19.224;2024-01-27T00:27:32;99433.00;;;4.03;91.31
75247;BME280;63844;50.042;19.224;2024-01-27T00:29:09;99446.23;;;3.89;93.29
75247;BME280;63844;50.042;19.224;2024-01-27T00:30:45;99437.66;;;3.77;94.76
75247;BME280;63844;50.042;19.224;2024-01-27T00:32:22;99445.41;;;3.70;95.45
75247;BME280;63844;50.042;19.224;2024-01-27T00:33:58;99443.65;;;3.59;96.48
75247;BME280;63844;50.042;19.224;2024-01-27T00:35:34;99456.62;;;3.58;96.21
75247;BME280;63844;50.042;19.224;2024-01-27T00:37:11;99447.55;;;3.63;95.49
75247;BME280;63844;50.042;19.224;2024-01-27T00:38:47;99434.31;;;3.61;95.34
75247;BME280;63844;50.042;19.224;2024-01-27T00:40:24;99432.52;;;3.74;93.02
75247;BME280;63844;50.042;19.224;2024-01-27T00:42:00;99438.16;;;3.72;94.12
75247;BME280;63844;50.042;19.224;2024-01-27T00:43:37;99439.36;;;3.73;93.54
75247;BME280;63844;50.042;19.224;2024-01-27T00:45:13;99437.57;;;3.75;93.48
75247;BME280;63844;50.042;19.224;2024-01-27T00:46:50;99440.80;;;3.83;91.92
75247;BME280;63844;50.042;19.224;2024-01-27T00:48:26;99450.09;;;3.89;90.89
75247;BME280;63844;50.042;19.224;2024-01-27T00:50:03;99445.37;;;3.88;92.06
75247;BME280;63844;50.042;19.224;2024-01-27T00:51:40;99448.59;;;3.86;91.78
75247;BME280;63844;50.042;19.224;2024-01-27T00:53:17;99448.54;;;3.89;91.32
75247;BME280;63844;50.042;19.224;2024-01-27T00:54:53;99446.23;;;3.89;91.08
75247;BME280;63844;50.042;19.224;2024-01-27T00:56:29;99454.52;;;3.93;90.46
75247;BME280;63844;50.042;19.224;2024-01-27T00:58:07;99457.11;;;3.94;90.52
75247;BME280;63844;50.042;19.224;2024-01-27T00:59:43;99458.48;;;3.95;89.98
75247;BME280;63844;50.042;19.224;2024-01-27T01:01:20;99462.46;;;3.96;89.75
75247;BME280;63844;50.042;19.224;2024-01-27T01:02:56;99466.11;;;3.98;90.13
75247;BME280;63844;50.042;19.224;2024-01-27T01:04:33;99472.33;;;4.00;88.41
75247;BME280;63844;50.042;19.224;2024-01-27T01:06:09;99473.95;;;4.09;87.40
75247;BME280;63844;50.042;19.224;2024-01-27T01:07:46;99474.63;;;4.10;86.94
75247;BME280;63844;50.042;19.224;2024-01-27T01:09:22;99474.63;;;4.11;87.03
75247;BME280;63844;50.042;19.224;2024-01-27T01:10:59;99478.86;;;4.09;87.26
75247;BME280;63844;50.042;19.224;2024-01-27T01:12:35;99474.63;;;4.10;86.54
75247;BME280;63844;50.042;19.224;2024-01-27T01:14:12;99479.02;;;4.10;86.23
75247;BME280;63844;50.042;19.224;2024-01-27T01:15:49;99480.95;;;4.10;86.49
75247;BME280;63844;50.042;19.224;2024-01-27T01:17:25;99478.83;;;4.10;86.35
75247;BME280;63844;50.042;19.224;2024-01-27T01:19:02;99483.92;;;4.10;86.43
75247;BME280;63844;50.042;19.224;2024-01-27T01:20:38;99490.84;;;4.13;86.30
75247;BME280;63844;50.042;19.224;2024-01-27T01:22:15;99485.89;;;4.14;85.97
75247;BME280;63844;50.042;19.224;2024-01-27T01:23:52;99490.04;;;4.16;86.06
75247;BME280;63844;50.042;19.224;2024-01-27T01:25:28;99491.25;;;4.16;85.98
75247;BME280;63844;50.042;19.224;2024-01-27T01:27:05;99494.52;;;4.13;86.27
75247;BME280;63844;50.042;19.224;2024-01-27T01:28:42;99494.06;;;4.16;85.49
75247;BME280;63844;50.042;19.224;2024-01-27T01:30:19;99490.81;;;4.14;86.52
75247;BME280;63844;50.042;19.224;2024-01-27T01:31:56;99490.08;;;4.15;86.49
75247;BME280;63844;50.042;19.224;2024-01-27T01:33:32;99498.47;;;4.15;85.88
75247;BME280;63844;50.042;19.224;2024-01-27T01:35:12;99501.23;;;4.17;85.34
75247;BME280;63844;50.042;19.224;2024-01-27T01:36:48;99497.59;;;4.15;85.82
75247;BME280;63844;50.042;19.224;2024-01-27T01:38:25;99493.91;;;4.15;85.89
75247;BME280;63844;50.042;19.224;2024-01-27T01:40:01;99498.73;;;4.13;85.84
75247;BME280;63844;50.042;19.224;2024-01-27T01:41:39;99507.36;;;4.17;84.99
75247;BME280;63844;50.042;19.224;2024-01-27T01:43:16;99507.52;;;4.22;83.26
75247;BME280;63844;50.042;19.224;2024-01-27T01:44:52;99492.91;;;4.19;83.48
75247;BME280;63844;50.042;19.224;2024-01-27T01:46:29;99514.75;;;4.21;82.96
75247;BME280;63844;50.042;19.224;2024-01-27T01:48:06;99503.42;;;4.24;82.52
75247;BME280;63844;50.042;19.224;2024-01-27T01:49:43;99501.01;;;4.23;82.84
75247;BME280;63844;50.042;19.224;2024-01-27T01:51:20;99506.92;;;4.19;83.09
75247;BME280;63844;50.042;19.224;2024-01-27T01:52:57;99504.13;;;4.19;82.94
75247;BME280;63844;50.042;19.224;2024-01-27T01:54:34;99509.29;;;4.17;81.61
75247;BME280;63844;50.042;19.224;2024-01-27T01:56:13;99507.87;;;4.17;80.58
75247;BME280;63844;50.042;19.224;2024-01-27T01:57:51;99522.31;;;4.20;79.72
75247;BME280;63844;50.042;19.224;2024-01-27T01:59:27;99518.36;;;4.23;79.42
75247;BME280;63844;50.042;19.224;2024-01-27T02:01:04;99529.42;;;4.22;80.00
75247;BME280;63844;50.042;19.224;2024-01-27T02:02:43;99516.31;;;4.22;79.69
75247;BME280;63844;50.042;19.224;2024-01-27T02:04:19;99516.67;;;4.21;80.06
75247;BME280;63844;50.042;19.224;2024-01-27T02:05:56;99515.67;;;4.19;80.07
75247;BME280;63844;50.042;19.224;2024-01-27T02:07:33;99513.19;;;4.20;79.60
75247;BME280;63844;50.042;19.224;2024-01-27T02:09:09;99511.30;;;4.19;79.74
75247;BME280;63844;50.042;19.224;2024-01-27T02:10:46;99514.86;;;4.17;79.01
75247;BME280;63844;50.042;19.224;2024-01-27T02:12:22;99514.67;;;4.18;78.89
75247;BME280;63844;50.042;19.224;2024-01-27T02:13:58;99529.22;;;4.18;78.79
75247;BME280;63844;50.042;19.224;2024-01-27T02:15:35;99527.04;;;4.15;78.49
75247;BME280;63844;50.042;19.224;2024-01-27T02:17:11;99517.27;;;4.13;78.20
75247;BME280;63844;50.042;19.224;2024-01-27T02:18:48;99517.81;;;4.13;78.69
75247;BME280;63844;50.042;19.224;2024-01-27T02:20:24;99523.14;;;4.11;78.79
75247;BME280;63844;50.042;19.224;2024-01-27T02:22:01;99512.06;;;4.12;79.07
75247;BME280;63844;50.042;19.224;2024-01-27T02:23:37;99513.10;;;4.12;79.33
75247;BME280;63844;50.042;19.224;2024-01-27T02:25:14;99517.20;;;4.10;79.83
75247;BME280;63844;50.042;19.224;2024-01-27T02:26:50;99513.42;;;4.08;79.89
75247;BME280;63844;50.042;19.224;2024-01-27T02:28:27;99516.69;;;4.09;79.71
75247;BME280;63844;50.042;19.224;2024-01-27T02:30:03;99514.65;;;4.07;79.73
75247;BME280;63844;50.042;19.224;2024-01-27T02:31:40;99515.20;;;4.07;79.83
75247;BME280;63844;50.042;19.224;2024-01-27T02:33:16;99516.11;;;4.06;79.60
75247;BME280;63844;50.042;19.224;2024-01-27T02:34:53;99512.64;;;4.05;79.67
75247;BME280;63844;50.042;19.224;2024-01-27T02:36:29;99512.83;;;4.04;79.93
75247;BME280;63844;50.042;19.224;2024-01-27T02:38:06;99522.31;;;4.03;79.70
75247;BME280;63844;50.042;19.224;2024-01-27T02:39:42;99520.23;;;4.03;79.36
75247;BME280;63844;50.042;19.224;2024-01-27T02:41:19;99521.27;;;4.03;79.33
75247;BME280;63844;50.042;19.224;2024-01-27T02:42:55;99522.09;;;4.05;79.39
75247;BME280;63844;50.042;19.224;2024-01-27T02:44:32;99519.33;;;4.03;79.86
75247;BME280;63844;50.042;19.224;2024-01-27T02:46:11;99522.33;;;4.03;79.18
75247;BME280;63844;50.042;19.224;2024-01-27T02:47:48;99523.54;;;4.03;79.26
75247;BME280;63844;50.042;19.224;2024-01-27T02:49:24;99526.52;;;4.03;79.29
75247;BME280;63844;50.042;19.224;2024-01-27T02:51:04;99531.09;;;4.03;79.01
75247;BME280;63844;50.042;19.224;2024-01-27T02:52:40;99528.27;;;4.03;78.77
75247;BME280;63844;50.042;19.224;2024-01-27T02:54:17;99521.81;;;4.02;79.33
75247;BME280;63844;50.042;19.224;2024-01-27T02:55:53;99528.20;;;4.00;79.59
75247;BME280;63844;50.042;19.224;2024-01-27T02:57:30;99534.02;;;3.98;79.39
75247;BME280;63844;50.042;19.224;2024-01-27T02:59:07;99524.88;;;4.00;79.11
75247;BME280;63844;50.042;19.224;2024-01-27T03:00:43;99523.13;;;3.99;79.36
75247;BME280;63844;50.042;19.224;2024-01-27T03:02:20;99523.52;;;3.98;79.11
75247;BME280;63844;50.042;19.224;2024-01-27T03:03:56;99522.83;;;3.98;79.47
75247;BME280;63844;50.042;19.224;2024-01-27T03:05:33;99527.77;;;3.97;79.64
75247;BME280;63844;50.042;19.224;2024-01-27T03:07:10;99527.23;;;3.97;79.88
75247;BME280;63844;50.042;19.224;2024-01-27T03:08:46;99530.63;;;3.95;79.79
75247;BME280;63844;50.042;19.224;2024-01-27T03:10:23;99531.13;;;3.96;79.33
75247;BME280;63844;50.042;19.224;2024-01-27T03:11:59;99534.45;;;3.96;79.66
75247;BME280;63844;50.042;19.224;2024-01-27T03:13:36;99541.94;;;3.97;79.58
75247;BME280;63844;50.042;19.224;2024-01-27T03:15:13;99547.02;;;3.97;79.62
75247;BME280;63844;50.042;19.224;2024-01-27T03:16:49;99537.17;;;3.93;80.48
75247;BME280;63844;50.042;19.224;2024-01-27T03:18:26;99534.57;;;3.92;80.21
75247;BME280;63844;50.042;19.224;2024-01-27T03:20:03;99534.54;;;3.93;80.26
75247;BME280;63844;50.042;19.224;2024-01-27T03:21:39;99552.29;;;3.91;80.05
75247;BME280;63844;50.042;19.224;2024-01-27T03:23:16;99539.52;;;3.91;79.66
75247;BME280;63844;50.042;19.224;2024-01-27T03:24:52;99530.55;;;3.92;79.66
75247;BME280;63844;50.042;19.224;2024-01-27T03:26:31;99533.80;;;3.94;78.73
75247;BME280;63844;50.042;19.224;2024-01-27T03:28:07;99528.69;;;3.95;79.38
75247;BME280;63844;50.042;19.224;2024-01-27T03:29:44;99531.39;;;3.93;79.04
75247;BME280;63844;50.042;19.224;2024-01-27T03:31:20;99536.81;;;3.93;79.14
75247;BME280;63844;50.042;19.224;2024-01-27T03:32:57;99536.61;;;3.94;78.34
75247;BME280;63844;50.042;19.224;2024-01-27T03:34:33;99536.73;;;3.90;78.74
75247;BME280;63844;50.042;19.224;2024-01-27T03:36:11;99542.34;;;3.90;78.92
75247;BME280;63844;50.042;19.224;2024-01-27T03:37:48;99555.48;;;3.89;78.25
75247;BME280;63844;50.042;19.224;2024-01-27T03:39:25;99567.50;;;3.92;78.36
75247;BME280;63844;50.042;19.224;2024-01-27T03:41:01;99580.84;;;3.91;79.84
75247;BME280;63844;50.042;19.224;2024-01-27T03:42:38;99580.86;;;3.77;82.47
75247;BME280;63844;50.042;19.224;2024-01-27T03:44:14;99575.08;;;3.65;84.78
75247;BME280;63844;50.042;19.224;2024-01-27T03:45:51;99580.73;;;3.57;85.56
75247;BME280;63844;50.042;19.224;2024-01-27T03:47:27;99585.75;;;3.41;86.79
75247;BME280;63844;50.042;19.224;2024-01-27T03:49:04;99590.40;;;3.31;87.96
75247;BME280;63844;50.042;19.224;2024-01-27T03:50:41;99578.17;;;3.24;88.26
75247;BME280;63844;50.042;19.224;2024-01-27T03:52:17;99583.23;;;3.18;88.97
75247;BME280;63844;50.042;19.224;2024-01-27T03:53:54;99578.20;;;3.09;89.55
75247;BME280;63844;50.042;19.224;2024-01-27T03:55:30;99576.77;;;3.04;89.86
75247;BME280;63844;50.042;19.224;2024-01-27T03:57:07;99581.02;;;3.02;89.80
75247;BME280;63844;50.042;19.224;2024-01-27T03:58:44;99584.73;;;3.00;89.36
75247;BME280;63844;50.042;19.224;2024-01-27T04:00:20;99594.75;;;2.98;89.55
75247;BME280;63844;50.042;19.224;2024-01-27T04:01:57;99604.04;;;2.98;89.17
75247;BME280;63844;50.042;19.224;2024-01-27T04:03:34;99595.21;;;3.00;89.10
75247;BME280;63844;50.042;19.224;2024-01-27T04:05:10;99606.05;;;3.00;89.36
75247;BME280;63844;50.042;19.224;2024-01-27T04:06:46;99606.79;;;2.99;89.20
75247;BME280;63844;50.042;19.224;2024-01-27T04:08:23;99608.98;;;2.96;90.02
75247;BME280;63844;50.042;19.224;2024-01-27T04:10:02;99622.31;;;2.93;89.99
75247;BME280;63844;50.042;19.224;2024-01-27T04:11:38;99619.88;;;2.92;89.72
75247;BME280;63844;50.042;19.224;2024-01-27T04:13:16;99627.42;;;2.91;89.66
75247;BME280;63844;50.042;19.224;2024-01-27T04:14:52;99629.52;;;2.91;89.76
75247;BME280;63844;50.042;19.224;2024-01-27T04:16:29;99626.93;;;2.90;89.68
75247;BME280;63844;50.042;19.224;2024-01-27T04:18:06;99630.95;;;2.90;89.69
75247;BME280;63844;50.042;19.224;2024-01-27T04:19:44;99627.23;;;2.92;89.24
75247;BME280;63844;50.042;19.224;2024-01-27T04:21:20;99623.11;;;2.96;88.79
75247;BME280;63844;50.042;19.224;2024-01-27T04:22:57;99625.95;;;2.95;88.62
75247;BME280;63844;50.042;19.224;2024-01-27T04:24:34;99636.05;;;2.97;88.28
75247;BME280;63844;50.042;19.224;2024-01-27T04:26:10;99640.83;;;3.01;87.40
75247;BME280;63844;50.042;19.224;2024-01-27T04:27:47;99643.60;;;3.02;87.49
75247;BME280;63844;50.042;19.224;2024-01-27T04:29:23;99648.98;;;3.04;87.30
75247;BME280;63844;50.042;19.224;2024-01-27T04:31:00;99647.19;;;3.06;87.14
75247;BME280;63844;50.042;19.224;2024-01-27T04:32:36;99648.83;;;3.03;87.10
75247;BME280;63844;50.042;19.224;2024-01-27T04:34:13;99641.69;;;3.02;87.23
75247;BME280;63844;50.042;19.224;2024-01-27T04:35:49;99635.23;;;3.02;87.56
75247;BME280;63844;50.042;19.224;2024-01-27T04:37:26;99641.40;;;2.99;87.52
75247;BME280;63844;50.042;19.224;2024-01-27T04:39:02;99633.88;;;3.00;87.44
75247;BME280;63844;50.042;19.224;2024-01-27T04:40:39;99642.09;;;3.00;86.64
75247;BME280;63844;50.042;19.224;2024-01-27T04:42:15;99642.48;;;3.05;85.87
75247;BME280;63844;50.042;19.224;2024-01-27T04:43:52;99641.86;;;3.09;85.89
75247;BME280;63844;50.042;19.224;2024-01-27T04:45:29;99644.63;;;3.10;85.51
75247;BME280;63844;50.042;19.224;2024-01-27T04:47:05;99642.52;;;3.11;85.69
75247;BME280;63844;50.042;19.224;2024-01-27T04:48:42;99650.86;;;3.12;84.91
75247;BME280;63844;50.042;19.224;2024-01-27T04:50:19;99644.77;;;3.18;83.62
75247;BME280;63844;50.042;19.224;2024-01-27T04:51:55;99641.83;;;3.24;83.47
75247;BME280;63844;50.042;19.224;2024-01-27T04:53:32;99642.16;;;3.25;82.96
75247;BME280;63844;50.042;19.224;2024-01-27T04:55:09;99644.29;;;3.30;82.74
75247;BME280;63844;50.042;19.224;2024-01-27T04:56:45;99645.17;;;3.30;82.71
75247;BME280;63844;50.042;19.224;2024-01-27T04:58:21;99645.33;;;3.30;81.88
75247;BME280;63844;50.042;19.224;2024-01-27T04:59:58;99645.73;;;3.35;81.64
75247;BME280;63844;50.042;19.224;2024-01-27T05:01:34;99647.55;;;3.39;80.95
75247;BME280;63844;50.042;19.224;2024-01-27T05:03:11;99647.39;;;3.39;80.68
75247;BME280;63844;50.042;19.224;2024-01-27T05:04:50;99656.05;;;3.42;79.96
75247;BME280;63844;50.042;19.224;2024-01-27T05:06:26;99647.29;;;3.43;80.33
75247;BME280;63844;50.042;19.224;2024-01-27T05:08:03;99648.66;;;3.44;80.05
75247;BME280;63844;50.042;19.224;2024-01-27T05:09:40;99649.54;;;3.44;79.90
75247;BME280;63844;50.042;19.224;2024-01-27T05:11:29;99653.75;;;3.43;80.47
75247;BME280;63844;50.042;19.224;2024-01-27T05:13:05;99654.52;;;3.47;79.27
75247;BME280;63844;50.042;19.224;2024-01-27T05:14:45;99659.21;;;3.49;79.03
75247;BME280;63844;50.042;19.224;2024-01-27T05:16:21;99656.99;;;3.47;78.89
75247;BME280;63844;50.042;19.224;2024-01-27T05:17:58;99670.30;;;3.46;78.75
75247;BME280;63844;50.042;19.224;2024-01-27T05:19:34;99664.36;;;3.46;78.05
75247;BME280;63844;50.042;19.224;2024-01-27T05:21:11;99660.12;;;3.47;78.38
75247;BME280;63844;50.042;19.224;2024-01-27T05:22:47;99665.66;;;3.50;78.18
75247;BME280;63844;50.042;19.224;2024-01-27T05:24:24;99660.91;;;3.51;77.65
75247;BME280;63844;50.042;19.224;2024-01-27T05:26:00;99669.81;;;3.51;77.59
75247;BME280;63844;50.042;19.224;2024-01-27T05:27:38;99675.15;;;3.55;76.81
75247;BME280;63844;50.042;19.224;2024-01-27T05:29:14;99673.11;;;3.59;76.57
75247;BME280;63844;50.042;19.224;2024-01-27T05:30:51;99673.50;;;3.57;76.92
75247;BME280;63844;50.042;19.224;2024-01-27T05:32:27;99677.39;;;3.56;76.73
75247;BME280;63844;50.042;19.224;2024-01-27T05:34:04;99670.04;;;3.56;76.51
75247;BME280;63844;50.042;19.224;2024-01-27T05:35:41;99675.79;;;3.50;76.41
75247;BME280;63844;50.042;19.224;2024-01-27T05:37:17;99675.43;;;3.50;76.43
75247;BME280;63844;50.042;19.224;2024-01-27T05:38:54;99674.06;;;3.49;76.48
75247;BME280;63844;50.042;19.224;2024-01-27T05:40:30;99675.91;;;3.52;75.34
75247;BME280;63844;50.042;19.224;2024-01-27T05:42:07;99676.39;;;3.54;75.38
75247;BME280;63844;50.042;19.224;2024-01-27T05:43:43;99685.96;;;3.56;75.31
75247;BME280;63844;50.042;19.224;2024-01-27T05:45:20;99680.77;;;3.54;75.66
75247;BME280;63844;50.042;19.224;2024-01-27T05:46:56;99679.81;;;3.57;74.66
75247;BME280;63844;50.042;19.224;2024-01-27T05:48:33;99676.14;;;3.57;75.10
75247;BME280;63844;50.042;19.224;2024-01-27T05:50:10;99678.97;;;3.55;74.78
75247;BME280;63844;50.042;19.224;2024-01-27T05:51:47;99670.42;;;3.54;74.89
75247;BME280;63844;50.042;19.224;2024-01-27T05:53:25;99670.98;;;3.54;75.52
75247;BME280;63844;50.042;19.224;2024-01-27T05:55:02;99674.40;;;3.50;75.83
75247;BME280;63844;50.042;19.224;2024-01-27T05:56:39;99670.93;;;3.49;75.88
75247;BME280;63844;50.042;19.224;2024-01-27T05:58:16;99672.20;;;3.47;75.84
75247;BME280;63844;50.042;19.224;2024-01-27T05:59:52;99684.46;;;3.47;76.00
75247;BME280;63844;50.042;19.224;2024-01-27T06:01:30;99682.00;;;3.46;75.59
75247;BME280;63844;50.042;19.224;2024-01-27T06:03:06;99682.38;;;3.46;75.82
75247;BME280;63844;50.042;19.224;2024-01-27T06:04:43;99680.29;;;3.45;75.20
75247;BME280;63844;50.042;19.224;2024-01-27T06:06:19;99687.06;;;3.48;75.06
75247;BME280;63844;50.042;19.224;2024-01-27T06:07:56;99674.80;;;3.48;74.61
75247;BME280;63844;50.042;19.224;2024-01-27T06:09:32;99687.58;;;3.48;75.26
75247;BME280;63844;50.042;19.224;2024-01-27T06:11:09;99680.56;;;3.48;75.46
75247;BME280;63844;50.042;19.224;2024-01-27T06:12:45;99680.45;;;3.46;75.61
75247;BME280;63844;50.042;19.224;2024-01-27T06:14:22;99677.84;;;3.45;75.37
75247;BME280;63844;50.042;19.224;2024-01-27T06:15:58;99671.55;;;3.45;75.72
75247;BME280;63844;50.042;19.224;2024-01-27T06:17:35;99681.96;;;3.42;75.75
75247;BME280;63844;50.042;19.224;2024-01-27T06:19:11;99681.98;;;3.41;75.97
75247;BME280;63844;50.042;19.224;2024-01-27T06:20:48;99680.63;;;3.39;75.78
75247;BME280;63844;50.042;19.224;2024-01-27T06:22:24;99681.85;;;3.39;75.91
75247;BME280;63844;50.042;19.224;2024-01-27T06:24:01;99682.75;;;3.38;76.25
75247;BME280;63844;50.042;19.224;2024-01-27T06:25:38;99686.44;;;3.37;76.20
75247;BME280;63844;50.042;19.224;2024-01-27T06:27:14;99689.05;;;3.38;76.35
75247;BME280;63844;50.042;19.224;2024-01-27T06:28:51;99694.14;;;3.38;76.64
75247;BME280;63844;50.042;19.224;2024-01-27T06:30:27;99695.20;;;3.37;76.85
75247;BME280;63844;50.042;19.224;2024-01-27T06:32:04;99696.46;;;3.35;76.85
75247;BME280;63844;50.042;19.224;2024-01-27T06:33:40;99700.29;;;3.37;76.83
75247;BME280;63844;50.042;19.224;2024-01-27T06:35:17;99701.02;;;3.36;76.38
75247;BME280;63844;50.042;19.224;2024-01-27T06:36:54;99700.16;;;3.35;76.93
75247;BME280;63844;50.042;19.224;2024-01-27T06:38:30;99698.58;;;3.35;76.54
75247;BME280;63844;50.042;19.224;2024-01-27T06:40:08;99706.41;;;3.37;76.28
75247;BME280;63844;50.042;19.224;2024-01-27T06:41:47;99710.43;;;3.36;75.87
75247;BME280;63844;50.042;19.224;2024-01-27T06:43:24;99709.22;;;3.36;75.69
75247;BME280;63844;50.042;19.224;2024-01-27T06:45:00;99697.90;;;3.41;75.23
75247;BME280;63844;50.042;19.224;2024-01-27T06:46:37;99698.15;;;3.38;75.96
75247;BME280;63844;50.042;19.224;2024-01-27T06:48:13;99700.43;;;3.38;75.95
75247;BME280;63844;50.042;19.224;2024-01-27T06:49:50;99705.19;;;3.36;76.37
75247;BME280;63844;50.042;19.224;2024-01-27T06:51:26;99706.14;;;3.34;76.25
75247;BME280;63844;50.042;19.224;2024-01-27T06:53:03;99711.23;;;3.32;76.32
75247;BME280;63844;50.042;19.224;2024-01-27T06:54:39;99716.58;;;3.35;76.19
75247;BME280;63844;50.042;19.224;2024-01-27T06:56:20;99723.41;;;3.35;75.75
75247;BME280;63844;50.042;19.224;2024-01-27T06:57:56;99721.98;;;3.36;75.81
75247;BME280;63844;50.042;19.224;2024-01-27T06:59:33;99715.54;;;3.35;75.73
75247;BME280;63844;50.042;19.224;2024-01-27T07:01:09;99717.66;;;3.35;75.82
75247;BME280;63844;50.042;19.224;2024-01-27T07:02:46;99724.27;;;3.36;75.78
75247;BME280;63844;50.042;19.224;2024-01-27T07:04:23;99730.27;;;3.34;75.50
75247;BME280;63844;50.042;19.224;2024-01-27T07:05:59;99733.04;;;3.35;75.53
75247;BME280;63844;50.042;19.224;2024-01-27T07:07:37;99733.19;;;3.36;75.03
75247;BME280;63844;50.042;19.224;2024-01-27T07:09:13;99728.80;;;3.37;75.01
75247;BME280;63844;50.042;19.224;2024-01-27T07:10:50;99734.23;;;3.36;75.27
75247;BME280;63844;50.042;19.224;2024-01-27T07:12:26;99740.91;;;3.35;75.20
75247;BME280;63844;50.042;19.224;2024-01-27T07:14:04;99738.27;;;3.36;75.50
75247;BME280;63844;50.042;19.224;2024-01-27T07:15:40;99740.56;;;3.35;75.46
75247;BME280;63844;50.042;19.224;2024-01-27T07:17:17;99737.77;;;3.35;74.99
75247;BME280;63844;50.042;19.224;2024-01-27T07:18:53;99741.73;;;3.37;75.06
75247;BME280;63844;50.042;19.224;2024-01-27T07:20:30;99747.02;;;3.35;75.00
75247;BME280;63844;50.042;19.224;2024-01-27T07:22:06;99755.98;;;3.34;75.09
75247;BME280;63844;50.042;19.224;2024-01-27T07:23:43;99744.94;;;3.35;74.98
75247;BME280;63844;50.042;19.224;2024-01-27T07:25:20;99753.36;;;3.34;75.23
75247;BME280;63844;50.042;19.224;2024-01-27T07:26:57;99749.60;;;3.37;75.23
75247;BME280;63844;50.042;19.224;2024-01-27T07:28:34;99752.23;;;3.37;75.09
75247;BME280;63844;50.042;19.224;2024-01-27T07:30:11;99759.98;;;3.35;74.92
75247;BME280;63844;50.042;19.224;2024-01-27T07:31:49;99756.77;;;3.37;74.52
75247;BME280;63844;50.042;19.224;2024-01-27T07:33:26;99760.33;;;3.35;74.35
75247;BME280;63844;50.042;19.224;2024-01-27T07:35:02;99756.27;;;3.37;74.22
75247;BME280;63844;50.042;19.224;2024-01-27T07:36:42;99752.71;;;3.39;74.20
75247;BME280;63844;50.042;19.224;2024-01-27T07:38:19;99755.91;;;3.37;74.14
75247;BME280;63844;50.042;19.224;2024-01-27T07:39:56;99745.70;;;3.40;74.36
75247;BME280;63844;50.042;19.224;2024-01-27T07:41:32;99744.79;;;3.42;74.55
75247;BME280;63844;50.042;19.224;2024-01-27T07:43:09;99742.08;;;3.45;74.48
75247;BME280;63844;50.042;19.224;2024-01-27T07:44:45;99745.95;;;3.44;74.22
75247;BME280;63844;50.042;19.224;2024-01-27T07:46:22;99740.88;;;3.44;73.31
75247;BME280;63844;50.042;19.224;2024-01-27T07:47:58;99740.82;;;3.46;73.58
75247;BME280;63844;50.042;19.224;2024-01-27T07:49:35;99751.23;;;3.50;73.26
75247;BME280;63844;50.042;19.224;2024-01-27T07:51:11;99750.61;;;3.47;73.33
75247;BME280;63844;50.042;19.224;2024-01-27T07:52:48;99746.33;;;3.50;73.12
75247;BME280;63844;50.042;19.224;2024-01-27T07:54:24;99743.77;;;3.47;73.65
75247;BME280;63844;50.042;19.224;2024-01-27T07:56:01;99749.88;;;3.48;73.65
75247;BME280;63844;50.042;19.224;2024-01-27T07:57:37;99751.52;;;3.45;73.52
75247;BME280;63844;50.042;19.224;2024-01-27T07:59:14;99752.05;;;3.45;73.12
75247;BME280;63844;50.042;19.224;2024-01-27T08:00:50;99747.17;;;3.44;73.29
75247;BME280;63844;50.042;19.224;2024-01-27T08:02:27;99753.88;;;3.42;73.51
75247;BME280;63844;50.042;19.224;2024-01-27T08:04:03;99764.45;;;3.46;72.83
75247;BME280;63844;50.042;19.224;2024-01-27T08:05:39;99756.95;;;3.45;73.18
75247;BME280;63844;50.042;19.224;2024-01-27T08:07:16;99756.25;;;3.45;73.41
75247;BME280;63844;50.042;19.224;2024-01-27T08:08:53;99758.65;;;3.47;73.70
75247;BME280;63844;50.042;19.224;2024-01-27T08:10:30;99753.77;;;3.46;73.25
75247;BME280;63844;50.042;19.224;2024-01-27T08:12:07;99759.92;;;3.45;73.02
75247;BME280;63844;50.042;19.224;2024-01-27T08:13:43;99754.97;;;3.47;72.43
75247;BME280;63844;50.042;19.224;2024-01-27T08:15:20;99769.33;;;3.47;72.56
75247;BME280;63844;50.042;19.224;2024-01-27T08:16:56;99769.38;;;3.45;72.52
75247;BME280;63844;50.042;19.224;2024-01-27T08:18:33;99767.80;;;3.45;72.19
75247;BME280;63844;50.042;19.224;2024-01-27T08:20:10;99769.52;;;3.46;72.46
75247;BME280;63844;50.042;19.224;2024-01-27T08:21:47;99784.29;;;3.44;72.98
75247;BME280;63844;50.042;19.224;2024-01-27T08:23:23;99772.21;;;3.43;73.20
75247;BME280;63844;50.042;19.224;2024-01-27T08:25:00;99785.04;;;3.41;72.80
75247;BME280;63844;50.042;19.224;2024-01-27T08:26:36;99771.41;;;3.40;72.70
75247;BME280;63844;50.042;19.224;2024-01-27T08:28:13;99773.45;;;3.43;72.86
75247;BME280;63844;50.042;19.224;2024-01-27T08:29:49;99775.79;;;3.40;73.00
75247;BME280;63844;50.042;19.224;2024-01-27T08:31:25;99775.17;;;3.37;73.15